Mostly Cloudy Current Weather (METAR) For Cancun Airport

All times on the weather descriptions are local

Observed at 15:40 - (26 mins ago)

Mostly Cloudy

28°C

Mostly Cloudy
Clouds: Scattered Clouds at 2,500ft, Scattered Clouds at 8,000ft, Broken Clouds at 25,000ft
Wind: 360° at 10 knots
Visibility: 7 statute miles
QNH:
Dew Point: 19°C
Runway in Use: Likely Runway 30

Sunrise Today: 06:46
Sunset Today: 18:16

Forecast Weather (TAF) For Cancun Airport

Issued at 19:00 - (5 days 2 hrs ago)


Runway in Use: Unable to determine, wind is clam

Forecast valid until 19:00 on Thursday

METAR/TAF RAW METAR / TAF

MMUN 252040Z 36010KT 7SM SCT025 SCT080 BKN250 28/19 A2993 RMK SLP128 57013 938 8/578

Weather Widget

Put weather from any of our airports on your website with our weather widget.

Find Another Search

Airport Search


Please Wait Please Wait - Loading
Close
Close

Login

Username:

Password:

Remember Me:

Remember me on this computer

Forgotten your password? Get a reset password sent to your registered e-mail address

Close

User Private Message

Subject:

Message: